createdAt,value
2023-03-26T00:09:21.062Z,8.15
2023-03-26T00:24:29.656Z,8.13
2023-03-26T00:39:33.794Z,8.17
2023-03-26T00:54:36.390Z,8.35
2023-03-26T01:09:45.723Z,8.40
2023-03-26T01:24:54.095Z,8.63
2023-03-26T01:40:07.132Z,8.78
2023-03-26T01:55:11.872Z,8.71
2023-03-26T02:10:22.314Z,8.26
2023-03-26T02:25:24.910Z,8.38
2023-03-26T02:40:28.051Z,8.71
2023-03-26T02:55:30.782Z,8.65
2023-03-26T03:10:33.359Z,8.65
2023-03-26T03:25:39.571Z,8.84
2023-03-26T03:40:45.558Z,8.76
2023-03-26T03:55:53.684Z,8.70
2023-03-26T04:10:59.105Z,8.64
2023-03-26T04:26:05.548Z,8.35
2023-03-26T04:41:13.246Z,8.45
2023-03-26T04:56:38.236Z,8.68
2023-03-26T05:11:41.400Z,8.92
2023-03-26T05:26:43.970Z,8.95
2023-03-26T05:41:49.471Z,9.74
2023-03-26T05:56:53.011Z,9.82
2023-03-26T06:11:55.974Z,9.49
2023-03-26T06:26:58.822Z,9.60
2023-03-26T06:42:01.542Z,9.68
2023-03-26T06:57:05.483Z,9.75
2023-03-26T07:12:12.681Z,9.84
2023-03-26T07:27:40.541Z,10.22
2023-03-26T07:42:46.316Z,10.53
2023-03-26T07:58:11.650Z,10.82
2023-03-26T08:13:25.437Z,11.39
2023-03-26T08:28:37.911Z,12.03
2023-03-26T08:43:55.105Z,12.30
2023-03-26T08:59:20.473Z,12.63
2023-03-26T09:14:51.483Z,14.87
2023-03-26T09:30:13.325Z,16.99
2023-03-26T09:45:18.614Z,15.25
2023-03-26T10:00:35.525Z,10.62
2023-03-26T10:16:05.606Z,12.01
2023-03-26T10:31:29.721Z,13.29
2023-03-26T10:47:04.694Z,13.97
2023-03-26T11:02:39.222Z,13.98
2023-03-26T11:18:08.108Z,13.85
2023-03-26T11:33:18.343Z,13.14
2023-03-26T11:48:28.316Z,14.60
2023-03-26T12:03:31.946Z,15.12
2023-03-26T12:18:35.104Z,13.91
2023-03-26T12:33:39.064Z,13.23
2023-03-26T12:48:42.077Z,13.07
2023-03-26T13:04:07.146Z,14.07
2023-03-26T13:19:20.680Z,13.91
2023-03-26T13:34:41.413Z,13.92
2023-03-26T13:49:49.653Z,14.22
2023-03-26T14:04:58.532Z,14.72
2023-03-26T14:20:22.673Z,14.65
2023-03-26T14:35:35.227Z,14.26
2023-03-26T14:51:19.872Z,14.06
2023-03-26T15:06:55.192Z,13.95
2023-03-26T15:22:19.894Z,13.75
2023-03-26T15:37:56.704Z,13.21
2023-03-26T15:53:11.754Z,13.08
2023-03-26T16:08:28.593Z,13.12
2023-03-26T16:23:47.300Z,12.13
2023-03-26T16:39:12.130Z,11.22
2023-03-26T16:54:17.594Z,11.49
2023-03-26T17:09:31.696Z,10.78
2023-03-26T17:24:42.822Z,10.57
2023-03-26T17:40:12.339Z,9.86
2023-03-26T17:55:19.767Z,9.15
2023-03-26T18:10:51.883Z,9.11
2023-03-26T18:26:09.828Z,8.72
2023-03-26T18:41:27.355Z,8.72
2023-03-26T18:56:35.294Z,8.96
2023-03-26T19:11:40.545Z,9.05
2023-03-26T19:26:44.131Z,9.03
2023-03-26T19:41:51.435Z,8.95
2023-03-26T19:56:54.021Z,8.81
2023-03-26T20:11:56.899Z,8.66
2023-03-26T20:26:59.476Z,8.58
2023-03-26T20:42:02.167Z,8.51
2023-03-26T20:57:04.823Z,8.40
2023-03-26T21:12:16.912Z,8.31
2023-03-26T21:27:43.590Z,8.21
2023-03-26T21:42:49.749Z,8.06
2023-03-26T21:58:12.288Z,7.93
2023-03-26T22:13:15.314Z,7.89
2023-03-26T22:28:19.641Z,7.93
2023-03-26T22:43:22.295Z,8.04
2023-03-26T22:58:25.464Z,8.10
2023-03-26T23:13:28.276Z,8.14
2023-03-26T23:28:32.172Z,8.09
2023-03-26T23:43:35.099Z,7.99
2023-03-26T23:58:37.728Z,7.91
